sensor_id;sensor_type;location;lat;lon;timestamp;P1;durP1;ratioP1;P2;durP2;ratioP2
16189;SDS011;41754;51.498;7.540;2023-09-19T00:01:04;3.67;;;2.08;;
16189;SDS011;41754;51.498;7.540;2023-09-19T00:03:35;4.28;;;2.10;;
16189;SDS011;41754;51.498;7.540;2023-09-19T00:06:04;6.95;;;2.42;;
16189;SDS011;41754;51.498;7.540;2023-09-19T00:08:34;6.05;;;2.33;;
16189;SDS011;41754;51.498;7.540;2023-09-19T00:11:02;5.10;;;2.08;;
16189;SDS011;41754;51.498;7.540;2023-09-19T00:13:30;7.07;;;2.60;;
16189;SDS011;41754;51.498;7.540;2023-09-19T00:15:58;11.10;;;2.67;;
16189;SDS011;41754;51.498;7.540;2023-09-19T00:18:27;5.30;;;2.30;;
16189;SDS011;41754;51.498;7.540;2023-09-19T00:20:56;5.00;;;2.40;;
16189;SDS011;41754;51.498;7.540;2023-09-19T00:23:24;5.35;;;2.35;;
16189;SDS011;41754;51.498;7.540;2023-09-19T00:25:53;4.85;;;2.50;;
16189;SDS011;41754;51.498;7.540;2023-09-19T00:28:23;8.50;;;2.47;;
16189;SDS011;41754;51.498;7.540;2023-09-19T00:30:52;4.22;;;2.22;;
16189;SDS011;41754;51.498;7.540;2023-09-19T00:33:22;5.35;;;2.22;;
16189;SDS011;41754;51.498;7.540;2023-09-19T00:35:52;5.85;;;2.33;;
16189;SDS011;41754;51.498;7.540;2023-09-19T00:38:21;4.93;;;2.25;;
16189;SDS011;41754;51.498;7.540;2023-09-19T00:40:53;5.80;;;2.13;;
16189;SDS011;41754;51.498;7.540;2023-09-19T00:43:26;7.57;;;2.42;;
16189;SDS011;41754;51.498;7.540;2023-09-19T00:45:55;7.22;;;2.40;;
16189;SDS011;41754;51.498;7.540;2023-09-19T00:48:24;6.45;;;2.15;;
16189;SDS011;41754;51.498;7.540;2023-09-19T00:50:55;7.85;;;3.22;;
16189;SDS011;41754;51.498;7.540;2023-09-19T00:53:26;8.40;;;2.33;;
16189;SDS011;41754;51.498;7.540;2023-09-19T00:55:54;9.02;;;2.97;;
16189;SDS011;41754;51.498;7.540;2023-09-19T00:58:23;6.47;;;2.53;;
16189;SDS011;41754;51.498;7.540;2023-09-19T01:00:51;6.63;;;2.15;;
16189;SDS011;41754;51.498;7.540;2023-09-19T01:03:19;6.68;;;2.45;;
16189;SDS011;41754;51.498;7.540;2023-09-19T01:05:48;8.48;;;2.20;;
16189;SDS011;41754;51.498;7.540;2023-09-19T01:08:19;8.00;;;2.47;;
16189;SDS011;41754;51.498;7.540;2023-09-19T01:10:50;7.93;;;2.40;;
16189;SDS011;41754;51.498;7.540;2023-09-19T01:13:25;7.35;;;2.20;;
16189;SDS011;41754;51.498;7.540;2023-09-19T01:15:59;9.13;;;2.45;;
16189;SDS011;41754;51.498;7.540;2023-09-19T01:18:35;9.00;;;2.30;;
16189;SDS011;41754;51.498;7.540;2023-09-19T01:21:11;9.80;;;2.30;;
16189;SDS011;41754;51.498;7.540;2023-09-19T01:23:53;8.50;;;2.80;;
16189;SDS011;41754;51.498;7.540;2023-09-19T01:26:43;7.80;;;2.40;;
16189;SDS011;41754;51.498;7.540;2023-09-19T01:29:35;9.88;;;2.40;;
16189;SDS011;41754;51.498;7.540;2023-09-19T01:32:08;10.27;;;2.58;;
16189;SDS011;41754;51.498;7.540;2023-09-19T01:34:46;6.40;;;2.55;;
16189;SDS011;41754;51.498;7.540;2023-09-19T01:37:15;11.05;;;2.42;;
16189;SDS011;41754;51.498;7.540;2023-09-19T01:39:46;9.38;;;2.60;;
16189;SDS011;41754;51.498;7.540;2023-09-19T01:42:19;9.55;;;2.63;;
16189;SDS011;41754;51.498;7.540;2023-09-19T01:44:57;8.75;;;2.20;;
16189;SDS011;41754;51.498;7.540;2023-09-19T01:47:33;6.88;;;2.22;;
16189;SDS011;41754;51.498;7.540;2023-09-19T01:50:09;5.78;;;2.10;;
16189;SDS011;41754;51.498;7.540;2023-09-19T01:52:45;8.63;;;2.58;;
16189;SDS011;41754;51.498;7.540;2023-09-19T01:55:16;7.97;;;2.53;;
16189;SDS011;41754;51.498;7.540;2023-09-19T01:57:48;9.00;;;2.70;;
16189;SDS011;41754;51.498;7.540;2023-09-19T02:00:19;6.25;;;2.00;;
16189;SDS011;41754;51.498;7.540;2023-09-19T02:02:53;9.13;;;2.97;;
16189;SDS011;41754;51.498;7.540;2023-09-19T02:05:25;8.40;;;2.22;;
16189;SDS011;41754;51.498;7.540;2023-09-19T02:07:54;6.85;;;2.08;;
16189;SDS011;41754;51.498;7.540;2023-09-19T02:10:23;7.85;;;2.65;;
16189;SDS011;41754;51.498;7.540;2023-09-19T02:12:50;6.90;;;2.10;;
16189;SDS011;41754;51.498;7.540;2023-09-19T02:15:18;7.47;;;2.20;;
16189;SDS011;41754;51.498;7.540;2023-09-19T02:17:46;9.02;;;2.40;;
16189;SDS011;41754;51.498;7.540;2023-09-19T02:20:16;9.23;;;2.30;;
16189;SDS011;41754;51.498;7.540;2023-09-19T02:22:46;7.90;;;2.60;;
16189;SDS011;41754;51.498;7.540;2023-09-19T02:25:16;7.32;;;2.42;;
16189;SDS011;41754;51.498;7.540;2023-09-19T02:27:45;7.05;;;2.42;;
16189;SDS011;41754;51.498;7.540;2023-09-19T02:30:13;8.02;;;2.50;;
16189;SDS011;41754;51.498;7.540;2023-09-19T02:32:42;8.93;;;2.95;;
16189;SDS011;41754;51.498;7.540;2023-09-19T02:35:11;5.20;;;2.13;;
16189;SDS011;41754;51.498;7.540;2023-09-19T02:37:42;5.97;;;2.20;;
16189;SDS011;41754;51.498;7.540;2023-09-19T02:40:11;9.23;;;2.47;;
16189;SDS011;41754;51.498;7.540;2023-09-19T02:42:46;9.50;;;2.55;;
16189;SDS011;41754;51.498;7.540;2023-09-19T02:45:16;7.03;;;2.13;;
16189;SDS011;41754;51.498;7.540;2023-09-19T02:47:45;7.25;;;2.17;;
16189;SDS011;41754;51.498;7.540;2023-09-19T02:50:15;6.55;;;2.00;;
16189;SDS011;41754;51.498;7.540;2023-09-19T02:52:45;9.63;;;2.45;;
16189;SDS011;41754;51.498;7.540;2023-09-19T02:55:15;7.63;;;2.55;;
16189;SDS011;41754;51.498;7.540;2023-09-19T02:57:46;9.05;;;2.60;;
16189;SDS011;41754;51.498;7.540;2023-09-19T03:00:15;10.23;;;2.80;;
16189;SDS011;41754;51.498;7.540;2023-09-19T03:02:47;9.32;;;2.47;;
16189;SDS011;41754;51.498;7.540;2023-09-19T03:05:15;8.50;;;2.60;;
16189;SDS011;41754;51.498;7.540;2023-09-19T03:07:46;9.35;;;3.00;;
16189;SDS011;41754;51.498;7.540;2023-09-19T03:10:17;7.97;;;2.45;;
16189;SDS011;41754;51.498;7.540;2023-09-19T03:12:45;8.00;;;2.35;;
16189;SDS011;41754;51.498;7.540;2023-09-19T03:15:14;8.20;;;2.20;;
16189;SDS011;41754;51.498;7.540;2023-09-19T03:17:44;7.20;;;2.33;;
16189;SDS011;41754;51.498;7.540;2023-09-19T03:20:18;5.90;;;2.28;;
16189;SDS011;41754;51.498;7.540;2023-09-19T03:22:49;10.18;;;2.88;;
16189;SDS011;41754;51.498;7.540;2023-09-19T03:25:19;8.65;;;2.60;;
16189;SDS011;41754;51.498;7.540;2023-09-19T03:27:50;7.97;;;2.40;;
16189;SDS011;41754;51.498;7.540;2023-09-19T03:30:19;9.23;;;2.50;;
16189;SDS011;41754;51.498;7.540;2023-09-19T03:32:48;9.43;;;2.60;;
16189;SDS011;41754;51.498;7.540;2023-09-19T03:35:18;7.72;;;2.42;;
16189;SDS011;41754;51.498;7.540;2023-09-19T03:37:47;5.60;;;2.38;;
16189;SDS011;41754;51.498;7.540;2023-09-19T03:40:17;7.82;;;2.60;;
16189;SDS011;41754;51.498;7.540;2023-09-19T03:42:48;9.50;;;2.60;;
16189;SDS011;41754;51.498;7.540;2023-09-19T03:45:16;9.15;;;2.70;;
16189;SDS011;41754;51.498;7.540;2023-09-19T03:47:50;8.40;;;2.33;;
16189;SDS011;41754;51.498;7.540;2023-09-19T03:50:21;8.15;;;2.53;;
16189;SDS011;41754;51.498;7.540;2023-09-19T03:52:49;7.80;;;2.78;;
16189;SDS011;41754;51.498;7.540;2023-09-19T03:55:18;7.80;;;2.50;;
16189;SDS011;41754;51.498;7.540;2023-09-19T03:57:47;8.55;;;2.63;;
16189;SDS011;41754;51.498;7.540;2023-09-19T04:00:15;5.60;;;2.05;;
16189;SDS011;41754;51.498;7.540;2023-09-19T04:02:47;8.38;;;2.60;;
16189;SDS011;41754;51.498;7.540;2023-09-19T04:05:16;8.77;;;2.22;;
16189;SDS011;41754;51.498;7.540;2023-09-19T04:07:44;7.00;;;2.45;;
16189;SDS011;41754;51.498;7.540;2023-09-19T04:10:12;7.78;;;2.00;;
16189;SDS011;41754;51.498;7.540;2023-09-19T04:12:44;7.60;;;2.38;;
16189;SDS011;41754;51.498;7.540;2023-09-19T04:15:18;9.90;;;2.40;;
16189;SDS011;41754;51.498;7.540;2023-09-19T04:17:45;6.90;;;2.20;;
16189;SDS011;41754;51.498;7.540;2023-09-19T04:20:13;7.93;;;2.47;;
16189;SDS011;41754;51.498;7.540;2023-09-19T04:22:42;6.78;;;2.17;;
16189;SDS011;41754;51.498;7.540;2023-09-19T04:25:10;7.82;;;2.17;;
16189;SDS011;41754;51.498;7.540;2023-09-19T04:27:38;8.60;;;2.45;;
16189;SDS011;41754;51.498;7.540;2023-09-19T04:30:09;11.60;;;2.70;;
16189;SDS011;41754;51.498;7.540;2023-09-19T04:32:38;8.00;;;2.30;;
16189;SDS011;41754;51.498;7.540;2023-09-19T04:35:07;12.32;;;2.55;;
16189;SDS011;41754;51.498;7.540;2023-09-19T04:37:37;8.82;;;2.38;;
16189;SDS011;41754;51.498;7.540;2023-09-19T04:40:06;9.70;;;2.75;;
16189;SDS011;41754;51.498;7.540;2023-09-19T04:42:39;7.90;;;2.80;;
16189;SDS011;41754;51.498;7.540;2023-09-19T04:45:10;8.40;;;2.08;;
16189;SDS011;41754;51.498;7.540;2023-09-19T04:47:38;9.93;;;2.80;;
16189;SDS011;41754;51.498;7.540;2023-09-19T04:50:07;7.35;;;2.30;;
16189;SDS011;41754;51.498;7.540;2023-09-19T04:52:40;7.82;;;2.13;;
16189;SDS011;41754;51.498;7.540;2023-09-19T04:55:11;6.82;;;2.35;;
16189;SDS011;41754;51.498;7.540;2023-09-19T04:57:43;6.40;;;2.13;;
16189;SDS011;41754;51.498;7.540;2023-09-19T05:00:14;6.95;;;1.98;;
16189;SDS011;41754;51.498;7.540;2023-09-19T05:02:43;8.57;;;1.90;;
16189;SDS011;41754;51.498;7.540;2023-09-19T05:05:11;9.32;;;2.58;;
16189;SDS011;41754;51.498;7.540;2023-09-19T05:07:41;6.55;;;2.15;;
16189;SDS011;41754;51.498;7.540;2023-09-19T05:10:10;8.27;;;2.30;;
16189;SDS011;41754;51.498;7.540;2023-09-19T05:12:39;8.95;;;2.28;;
16189;SDS011;41754;51.498;7.540;2023-09-19T05:15:08;8.20;;;2.17;;
16189;SDS011;41754;51.498;7.540;2023-09-19T05:17:37;7.60;;;2.25;;
16189;SDS011;41754;51.498;7.540;2023-09-19T05:20:06;9.20;;;2.72;;
16189;SDS011;41754;51.498;7.540;2023-09-19T05:22:39;7.55;;;2.70;;
16189;SDS011;41754;51.498;7.540;2023-09-19T05:25:07;4.78;;;1.92;;
16189;SDS011;41754;51.498;7.540;2023-09-19T05:27:35;12.18;;;2.60;;
16189;SDS011;41754;51.498;7.540;2023-09-19T05:30:04;8.02;;;2.95;;
16189;SDS011;41754;51.498;7.540;2023-09-19T05:32:33;7.82;;;2.60;;
16189;SDS011;41754;51.498;7.540;2023-09-19T05:35:02;12.15;;;2.63;;
16189;SDS011;41754;51.498;7.540;2023-09-19T05:37:34;12.38;;;2.38;;
16189;SDS011;41754;51.498;7.540;2023-09-19T05:40:03;6.40;;;2.30;;
16189;SDS011;41754;51.498;7.540;2023-09-19T05:42:36;10.70;;;2.72;;
16189;SDS011;41754;51.498;7.540;2023-09-19T05:45:04;11.73;;;3.03;;
16189;SDS011;41754;51.498;7.540;2023-09-19T05:47:33;6.80;;;2.63;;
16189;SDS011;41754;51.498;7.540;2023-09-19T05:50:02;8.65;;;2.85;;
16189;SDS011;41754;51.498;7.540;2023-09-19T05:52:31;8.57;;;2.55;;
16189;SDS011;41754;51.498;7.540;2023-09-19T05:54:59;10.80;;;2.60;;
16189;SDS011;41754;51.498;7.540;2023-09-19T05:57:27;12.95;;;3.28;;
16189;SDS011;41754;51.498;7.540;2023-09-19T05:59:56;9.82;;;2.72;;
16189;SDS011;41754;51.498;7.540;2023-09-19T06:02:24;5.68;;;2.67;;
16189;SDS011;41754;51.498;7.540;2023-09-19T06:04:55;9.13;;;2.58;;
16189;SDS011;41754;51.498;7.540;2023-09-19T06:07:25;7.95;;;2.80;;
16189;SDS011;41754;51.498;7.540;2023-09-19T06:09:54;7.07;;;2.58;;
16189;SDS011;41754;51.498;7.540;2023-09-19T06:12:23;4.90;;;2.13;;
16189;SDS011;41754;51.498;7.540;2023-09-19T06:14:51;7.68;;;2.55;;
16189;SDS011;41754;51.498;7.540;2023-09-19T06:17:19;12.00;;;2.45;;
16189;SDS011;41754;51.498;7.540;2023-09-19T06:19:49;8.13;;;2.47;;
16189;SDS011;41754;51.498;7.540;2023-09-19T06:22:16;7.25;;;2.45;;
16189;SDS011;41754;51.498;7.540;2023-09-19T06:24:46;8.90;;;2.67;;
16189;SDS011;41754;51.498;7.540;2023-09-19T06:27:14;4.38;;;2.20;;
16189;SDS011;41754;51.498;7.540;2023-09-19T06:29:42;10.55;;;2.83;;
16189;SDS011;41754;51.498;7.540;2023-09-19T06:32:10;8.55;;;2.50;;
16189;SDS011;41754;51.498;7.540;2023-09-19T06:34:38;9.48;;;2.63;;
16189;SDS011;41754;51.498;7.540;2023-09-19T06:37:09;10.75;;;2.85;;
16189;SDS011;41754;51.498;7.540;2023-09-19T06:39:37;8.07;;;2.88;;
16189;SDS011;41754;51.498;7.540;2023-09-19T06:42:06;7.93;;;2.58;;
16189;SDS011;41754;51.498;7.540;2023-09-19T06:44:35;8.55;;;2.53;;
16189;SDS011;41754;51.498;7.540;2023-09-19T06:47:03;7.45;;;2.08;;
16189;SDS011;41754;51.498;7.540;2023-09-19T06:49:31;5.60;;;2.83;;
16189;SDS011;41754;51.498;7.540;2023-09-19T06:51:59;7.03;;;2.42;;
16189;SDS011;41754;51.498;7.540;2023-09-19T06:54:28;5.70;;;2.83;;
16189;SDS011;41754;51.498;7.540;2023-09-19T06:56:57;9.70;;;3.08;;
16189;SDS011;41754;51.498;7.540;2023-09-19T06:59:26;8.27;;;2.42;;
16189;SDS011;41754;51.498;7.540;2023-09-19T07:01:54;6.30;;;2.33;;
16189;SDS011;41754;51.498;7.540;2023-09-19T07:04:24;8.35;;;2.47;;
16189;SDS011;41754;51.498;7.540;2023-09-19T07:06:52;10.88;;;2.95;;
16189;SDS011;41754;51.498;7.540;2023-09-19T07:09:20;6.60;;;2.42;;
16189;SDS011;41754;51.498;7.540;2023-09-19T07:11:49;4.25;;;1.83;;
16189;SDS011;41754;51.498;7.540;2023-09-19T07:14:17;9.18;;;2.75;;
16189;SDS011;41754;51.498;7.540;2023-09-19T07:16:46;7.70;;;2.20;;
16189;SDS011;41754;51.498;7.540;2023-09-19T07:19:16;7.65;;;2.20;;
16189;SDS011;41754;51.498;7.540;2023-09-19T07:21:43;9.10;;;2.75;;
16189;SDS011;41754;51.498;7.540;2023-09-19T07:24:13;9.98;;;2.65;;
16189;SDS011;41754;51.498;7.540;2023-09-19T07:26:41;10.20;;;3.30;;
16189;SDS011;41754;51.498;7.540;2023-09-19T07:29:09;7.22;;;2.35;;
16189;SDS011;41754;51.498;7.540;2023-09-19T07:31:37;6.80;;;2.67;;
16189;SDS011;41754;51.498;7.540;2023-09-19T07:34:07;7.78;;;2.38;;
16189;SDS011;41754;51.498;7.540;2023-09-19T07:36:36;7.97;;;2.35;;
16189;SDS011;41754;51.498;7.540;2023-09-19T07:39:06;9.00;;;2.63;;
16189;SDS011;41754;51.498;7.540;2023-09-19T07:41:48;11.55;;;3.17;;
16189;SDS011;41754;51.498;7.540;2023-09-19T07:44:36;7.32;;;2.50;;
16189;SDS011;41754;51.498;7.540;2023-09-19T07:47:04;10.98;;;2.88;;
16189;SDS011;41754;51.498;7.540;2023-09-19T07:49:33;11.77;;;2.50;;
16189;SDS011;41754;51.498;7.540;2023-09-19T07:52:01;9.57;;;2.55;;
16189;SDS011;41754;51.498;7.540;2023-09-19T07:54:29;12.70;;;3.00;;
16189;SDS011;41754;51.498;7.540;2023-09-19T07:57:02;7.72;;;2.67;;
16189;SDS011;41754;51.498;7.540;2023-09-19T07:59:30;11.40;;;2.90;;
16189;SDS011;41754;51.498;7.540;2023-09-19T08:01:58;7.05;;;2.20;;
16189;SDS011;41754;51.498;7.540;2023-09-19T08:04:27;10.52;;;2.95;;
16189;SDS011;41754;51.498;7.540;2023-09-19T08:06:58;7.78;;;3.03;;
16189;SDS011;41754;51.498;7.540;2023-09-19T08:09:26;10.05;;;2.22;;
16189;SDS011;41754;51.498;7.540;2023-09-19T08:11:58;6.13;;;2.45;;
16189;SDS011;41754;51.498;7.540;2023-09-19T08:14:30;10.60;;;2.70;;
16189;SDS011;41754;51.498;7.540;2023-09-19T08:16:58;8.60;;;2.30;;
16189;SDS011;41754;51.498;7.540;2023-09-19T08:19:27;7.03;;;2.42;;
16189;SDS011;41754;51.498;7.540;2023-09-19T08:21:59;8.98;;;2.75;;
16189;SDS011;41754;51.498;7.540;2023-09-19T08:24:27;12.65;;;3.53;;
16189;SDS011;41754;51.498;7.540;2023-09-19T08:26:56;11.27;;;2.78;;
16189;SDS011;41754;51.498;7.540;2023-09-19T08:29:24;8.93;;;3.17;;
16189;SDS011;41754;51.498;7.540;2023-09-19T08:31:54;7.10;;;2.63;;
16189;SDS011;41754;51.498;7.540;2023-09-19T08:34:22;12.95;;;3.78;;
16189;SDS011;41754;51.498;7.540;2023-09-19T08:36:50;6.63;;;2.30;;
16189;SDS011;41754;51.498;7.540;2023-09-19T08:39:20;8.63;;;2.13;;
16189;SDS011;41754;51.498;7.540;2023-09-19T08:41:48;8.55;;;2.60;;
16189;SDS011;41754;51.498;7.540;2023-09-19T08:44:16;8.20;;;2.70;;
16189;SDS011;41754;51.498;7.540;2023-09-19T08:46:45;6.38;;;2.38;;
16189;SDS011;41754;51.498;7.540;2023-09-19T08:49:17;9.68;;;2.45;;
16189;SDS011;41754;51.498;7.540;2023-09-19T08:51:56;8.35;;;2.63;;
16189;SDS011;41754;51.498;7.540;2023-09-19T08:54:34;8.10;;;2.50;;
16189;SDS011;41754;51.498;7.540;2023-09-19T08:57:06;4.07;;;2.03;;
16189;SDS011;41754;51.498;7.540;2023-09-19T08:59:37;8.90;;;2.58;;
16189;SDS011;41754;51.498;7.540;2023-09-19T09:02:08;15.27;;;3.30;;
16189;SDS011;41754;51.498;7.540;2023-09-19T09:04:39;8.98;;;3.00;;
16189;SDS011;41754;51.498;7.540;2023-09-19T09:07:10;8.57;;;2.70;;
16189;SDS011;41754;51.498;7.540;2023-09-19T09:09:40;9.32;;;3.05;;
16189;SDS011;41754;51.498;7.540;2023-09-19T09:12:09;11.93;;;3.08;;
16189;SDS011;41754;51.498;7.540;2023-09-19T09:14:39;11.48;;;2.80;;
16189;SDS011;41754;51.498;7.540;2023-09-19T09:17:07;8.85;;;2.67;;
16189;SDS011;41754;51.498;7.540;2023-09-19T09:19:36;12.35;;;3.15;;
16189;SDS011;41754;51.498;7.540;2023-09-19T09:22:07;7.18;;;2.80;;
16189;SDS011;41754;51.498;7.540;2023-09-19T09:24:36;9.98;;;4.05;;
16189;SDS011;41754;51.498;7.540;2023-09-19T09:27:07;6.70;;;2.28;;
16189;SDS011;41754;51.498;7.540;2023-09-19T09:29:40;7.55;;;2.28;;
16189;SDS011;41754;51.498;7.540;2023-09-19T09:32:16;8.27;;;3.28;;
16189;SDS011;41754;51.498;7.540;2023-09-19T09:34:48;10.57;;;2.50;;
16189;SDS011;41754;51.498;7.540;2023-09-19T09:37:18;7.65;;;2.80;;
16189;SDS011;41754;51.498;7.540;2023-09-19T09:39:50;7.03;;;2.50;;
16189;SDS011;41754;51.498;7.540;2023-09-19T09:42:30;10.35;;;3.22;;
16189;SDS011;41754;51.498;7.540;2023-09-19T09:45:14;9.75;;;2.78;;
16189;SDS011;41754;51.498;7.540;2023-09-19T09:47:46;8.50;;;2.03;;
16189;SDS011;41754;51.498;7.540;2023-09-19T09:50:25;9.88;;;2.50;;
16189;SDS011;41754;51.498;7.540;2023-09-19T09:52:56;8.88;;;2.33;;
16189;SDS011;41754;51.498;7.540;2023-09-19T09:55:56;9.77;;;2.15;;
16189;SDS011;41754;51.498;7.540;2023-09-19T09:58:27;6.57;;;2.50;;
16189;SDS011;41754;51.498;7.540;2023-09-19T10:00:58;7.32;;;2.40;;
16189;SDS011;41754;51.498;7.540;2023-09-19T10:03:33;7.13;;;2.28;;
16189;SDS011;41754;51.498;7.540;2023-09-19T10:06:06;11.57;;;2.97;;
16189;SDS011;41754;51.498;7.540;2023-09-19T10:08:58;8.82;;;2.80;;
16189;SDS011;41754;51.498;7.540;2023-09-19T10:11:41;6.47;;;2.55;;
16189;SDS011;41754;51.498;7.540;2023-09-19T10:14:15;9.20;;;2.67;;
16189;SDS011;41754;51.498;7.540;2023-09-19T10:16:45;6.85;;;2.42;;
16189;SDS011;41754;51.498;7.540;2023-09-19T10:19:15;6.30;;;2.08;;
16189;SDS011;41754;51.498;7.540;2023-09-19T10:21:48;11.40;;;2.67;;
16189;SDS011;41754;51.498;7.540;2023-09-19T10:24:17;5.65;;;2.38;;
16189;SDS011;41754;51.498;7.540;2023-09-19T10:26:47;11.68;;;2.90;;
16189;SDS011;41754;51.498;7.540;2023-09-19T10:29:18;8.27;;;2.85;;
16189;SDS011;41754;51.498;7.540;2023-09-19T10:31:47;9.95;;;2.53;;
16189;SDS011;41754;51.498;7.540;2023-09-19T10:34:17;10.23;;;2.40;;
16189;SDS011;41754;51.498;7.540;2023-09-19T10:36:45;8.60;;;2.90;;
16189;SDS011;41754;51.498;7.540;2023-09-19T10:39:14;10.07;;;2.78;;
16189;SDS011;41754;51.498;7.540;2023-09-19T10:41:47;11.77;;;2.75;;
16189;SDS011;41754;51.498;7.540;2023-09-19T10:44:26;6.57;;;2.78;;
16189;SDS011;41754;51.498;7.540;2023-09-19T10:46:55;7.20;;;3.10;;
16189;SDS011;41754;51.498;7.540;2023-09-19T10:49:25;6.10;;;2.20;;
16189;SDS011;41754;51.498;7.540;2023-09-19T10:51:54;5.15;;;2.08;;
16189;SDS011;41754;51.498;7.540;2023-09-19T10:54:26;5.80;;;2.22;;
16189;SDS011;41754;51.498;7.540;2023-09-19T10:56:58;6.63;;;2.28;;
16189;SDS011;41754;51.498;7.540;2023-09-19T10:59:28;5.15;;;2.20;;
16189;SDS011;41754;51.498;7.540;2023-09-19T11:02:15;6.78;;;2.33;;
16189;SDS011;41754;51.498;7.540;2023-09-19T11:04:45;6.03;;;2.30;;
16189;SDS011;41754;51.498;7.540;2023-09-19T11:07:15;5.55;;;1.75;;
16189;SDS011;41754;51.498;7.540;2023-09-19T11:09:43;6.05;;;1.88;;
16189;SDS011;41754;51.498;7.540;2023-09-19T11:27:11;6.18;;;2.50;;
16189;SDS011;41754;51.498;7.540;2023-09-19T11:29:43;3.67;;;1.90;;
16189;SDS011;41754;51.498;7.540;2023-09-19T11:32:12;3.85;;;2.10;;
16189;SDS011;41754;51.498;7.540;2023-09-19T11:34:47;6.60;;;2.25;;
16189;SDS011;41754;51.498;7.540;2023-09-19T11:40:36;5.45;;;2.20;;
16189;SDS011;41754;51.498;7.540;2023-09-19T11:46:05;7.65;;;2.30;;
16189;SDS011;41754;51.498;7.540;2023-09-19T11:48:40;6.22;;;2.33;;
16189;SDS011;41754;51.498;7.540;2023-09-19T11:51:15;7.22;;;2.13;;
16189;SDS011;41754;51.498;7.540;2023-09-19T11:53:50;6.20;;;2.33;;
16189;SDS011;41754;51.498;7.540;2023-09-19T11:56:20;5.60;;;2.03;;
16189;SDS011;41754;51.498;7.540;2023-09-19T11:58:51;3.65;;;1.92;;
16189;SDS011;41754;51.498;7.540;2023-09-19T12:01:23;3.75;;;1.67;;
16189;SDS011;41754;51.498;7.540;2023-09-19T12:03:56;3.58;;;2.20;;
16189;SDS011;41754;51.498;7.540;2023-09-19T12:06:28;4.70;;;2.15;;
16189;SDS011;41754;51.498;7.540;2023-09-19T12:08:58;4.10;;;1.95;;
16189;SDS011;41754;51.498;7.540;2023-09-19T12:11:32;6.85;;;2.20;;
16189;SDS011;41754;51.498;7.540;2023-09-19T12:14:02;5.18;;;1.90;;
16189;SDS011;41754;51.498;7.540;2023-09-19T12:16:30;5.55;;;1.92;;
16189;SDS011;41754;51.498;7.540;2023-09-19T12:19:17;5.10;;;2.33;;
16189;SDS011;41754;51.498;7.540;2023-09-19T12:21:54;4.55;;;1.85;;
16189;SDS011;41754;51.498;7.540;2023-09-19T12:24:24;4.65;;;2.00;;
16189;SDS011;41754;51.498;7.540;2023-09-19T12:26:59;4.43;;;2.13;;
16189;SDS011;41754;51.498;7.540;2023-09-19T12:29:31;4.63;;;1.95;;
16189;SDS011;41754;51.498;7.540;2023-09-19T12:32:00;5.18;;;2.28;;
16189;SDS011;41754;51.498;7.540;2023-09-19T12:34:32;6.20;;;1.75;;
16189;SDS011;41754;51.498;7.540;2023-09-19T12:37:07;5.25;;;2.70;;
16189;SDS011;41754;51.498;7.540;2023-09-19T12:39:39;6.18;;;2.30;;
16189;SDS011;41754;51.498;7.540;2023-09-19T12:42:09;4.63;;;2.10;;
16189;SDS011;41754;51.498;7.540;2023-09-19T12:44:41;5.72;;;2.47;;
16189;SDS011;41754;51.498;7.540;2023-09-19T12:47:13;4.95;;;2.25;;
16189;SDS011;41754;51.498;7.540;2023-09-19T12:50:05;5.68;;;2.38;;
16189;SDS011;41754;51.498;7.540;2023-09-19T12:52:46;4.80;;;2.03;;
16189;SDS011;41754;51.498;7.540;2023-09-19T12:55:25;7.32;;;2.05;;
16189;SDS011;41754;51.498;7.540;2023-09-19T12:58:01;4.18;;;1.90;;
16189;SDS011;41754;51.498;7.540;2023-09-19T13:00:36;5.60;;;1.95;;
16189;SDS011;41754;51.498;7.540;2023-09-19T13:03:15;3.13;;;1.60;;
16189;SDS011;41754;51.498;7.540;2023-09-19T13:05:52;4.13;;;2.15;;
16189;SDS011;41754;51.498;7.540;2023-09-19T13:08:24;4.50;;;1.90;;
16189;SDS011;41754;51.498;7.540;2023-09-19T13:11:02;4.47;;;1.70;;
16189;SDS011;41754;51.498;7.540;2023-09-19T13:13:37;5.30;;;1.70;;
16189;SDS011;41754;51.498;7.540;2023-09-19T13:16:07;6.05;;;1.88;;
16189;SDS011;41754;51.498;7.540;2023-09-19T13:18:42;3.63;;;1.70;;
16189;SDS011;41754;51.498;7.540;2023-09-19T13:21:12;4.38;;;1.90;;
16189;SDS011;41754;51.498;7.540;2023-09-19T13:23:51;3.30;;;1.80;;
16189;SDS011;41754;51.498;7.540;2023-09-19T13:26:20;2.72;;;1.65;;
16189;SDS011;41754;51.498;7.540;2023-09-19T13:28:49;4.60;;;1.90;;
16189;SDS011;41754;51.498;7.540;2023-09-19T13:31:17;3.70;;;1.70;;
16189;SDS011;41754;51.498;7.540;2023-09-19T13:33:45;3.88;;;1.98;;
16189;SDS011;41754;51.498;7.540;2023-09-19T13:36:13;5.65;;;2.05;;
16189;SDS011;41754;51.498;7.540;2023-09-19T13:38:41;3.15;;;1.98;;
16189;SDS011;41754;51.498;7.540;2023-09-19T13:41:15;5.45;;;2.05;;
16189;SDS011;41754;51.498;7.540;2023-09-19T13:43:43;3.67;;;1.83;;
16189;SDS011;41754;51.498;7.540;2023-09-19T13:46:15;4.07;;;1.65;;
16189;SDS011;41754;51.498;7.540;2023-09-19T13:48:44;3.85;;;1.30;;
16189;SDS011;41754;51.498;7.540;2023-09-19T13:51:12;3.13;;;1.48;;
16189;SDS011;41754;51.498;7.540;2023-09-19T13:53:41;3.55;;;1.70;;
16189;SDS011;41754;51.498;7.540;2023-09-19T13:56:09;4.70;;;1.90;;
16189;SDS011;41754;51.498;7.540;2023-09-19T13:58:39;1.67;;;1.05;;
16189;SDS011;41754;51.498;7.540;2023-09-19T14:01:09;4.38;;;1.45;;
16189;SDS011;41754;51.498;7.540;2023-09-19T14:03:39;3.42;;;1.42;;
16189;SDS011;41754;51.498;7.540;2023-09-19T14:06:07;2.40;;;1.10;;
16189;SDS011;41754;51.498;7.540;2023-09-19T14:08:35;1.92;;;1.40;;
16189;SDS011;41754;51.498;7.540;2023-09-19T14:11:05;4.30;;;1.55;;
16189;SDS011;41754;51.498;7.540;2023-09-19T14:13:33;3.88;;;1.90;;
16189;SDS011;41754;51.498;7.540;2023-09-19T14:16:04;2.50;;;1.08;;
16189;SDS011;41754;51.498;7.540;2023-09-19T14:18:32;2.92;;;1.23;;
16189;SDS011;41754;51.498;7.540;2023-09-19T14:21:02;5.10;;;1.50;;
16189;SDS011;41754;51.498;7.540;2023-09-19T14:23:34;4.05;;;1.33;;
16189;SDS011;41754;51.498;7.540;2023-09-19T14:26:02;3.15;;;1.60;;
16189;SDS011;41754;51.498;7.540;2023-09-19T14:28:30;2.78;;;1.40;;
16189;SDS011;41754;51.498;7.540;2023-09-19T14:31:05;3.15;;;1.20;;
16189;SDS011;41754;51.498;7.540;2023-09-19T14:33:34;2.60;;;1.00;;
16189;SDS011;41754;51.498;7.540;2023-09-19T14:36:02;1.48;;;0.95;;
16189;SDS011;41754;51.498;7.540;2023-09-19T14:38:33;2.78;;;0.90;;
16189;SDS011;41754;51.498;7.540;2023-09-19T14:41:01;2.10;;;1.10;;
16189;SDS011;41754;51.498;7.540;2023-09-19T14:43:29;2.70;;;1.38;;
16189;SDS011;41754;51.498;7.540;2023-09-19T14:46:02;1.83;;;1.00;;
16189;SDS011;41754;51.498;7.540;2023-09-19T14:48:32;5.50;;;1.05;;
16189;SDS011;41754;51.498;7.540;2023-09-19T14:51:03;3.75;;;1.45;;
16189;SDS011;41754;51.498;7.540;2023-09-19T14:53:31;5.68;;;1.55;;
16189;SDS011;41754;51.498;7.540;2023-09-19T14:56:00;2.00;;;1.00;;
16189;SDS011;41754;51.498;7.540;2023-09-19T14:58:30;2.63;;;1.00;;
16189;SDS011;41754;51.498;7.540;2023-09-19T15:01:02;2.90;;;1.08;;
16189;SDS011;41754;51.498;7.540;2023-09-19T15:03:32;3.40;;;0.95;;
16189;SDS011;41754;51.498;7.540;2023-09-19T15:06:02;2.63;;;1.40;;
16189;SDS011;41754;51.498;7.540;2023-09-19T15:08:31;2.80;;;1.00;;
16189;SDS011;41754;51.498;7.540;2023-09-19T15:11:01;3.13;;;1.08;;
16189;SDS011;41754;51.498;7.540;2023-09-19T15:13:30;3.15;;;1.10;;
16189;SDS011;41754;51.498;7.540;2023-09-19T15:15:59;5.15;;;1.35;;
16189;SDS011;41754;51.498;7.540;2023-09-19T15:18:28;2.85;;;0.80;;
16189;SDS011;41754;51.498;7.540;2023-09-19T15:21:00;5.72;;;1.15;;
16189;SDS011;41754;51.498;7.540;2023-09-19T15:23:27;3.15;;;1.10;;
16189;SDS011;41754;51.498;7.540;2023-09-19T15:25:58;5.30;;;0.98;;
16189;SDS011;41754;51.498;7.540;2023-09-19T15:28:26;3.65;;;1.02;;